sensor_id;sensor_type;location;lat;lon;timestamp;temperature;humidity
13389;DHT22;6764;53.250;10.410;2023-05-10T00:01:40;15.40;76.60
13389;DHT22;6764;53.250;10.410;2023-05-10T00:04:05;15.30;76.80
13389;DHT22;6764;53.250;10.410;2023-05-10T00:06:31;15.30;77.00
13389;DHT22;6764;53.250;10.410;2023-05-10T00:08:57;15.40;77.10
13389;DHT22;6764;53.250;10.410;2023-05-10T00:11:23;15.30;77.40
13389;DHT22;6764;53.250;10.410;2023-05-10T00:13:48;15.30;77.70
13389;DHT22;6764;53.250;10.410;2023-05-10T00:16:14;15.20;77.90
13389;DHT22;6764;53.250;10.410;2023-05-10T00:18:40;15.20;77.90
13389;DHT22;6764;53.250;10.410;2023-05-10T00:21:05;15.30;77.80
13389;DHT22;6764;53.250;10.410;2023-05-10T00:23:31;15.20;78.00
13389;DHT22;6764;53.250;10.410;2023-05-10T00:25:57;15.20;78.20
13389;DHT22;6764;53.250;10.410;2023-05-10T00:28:22;15.10;78.60
13389;DHT22;6764;53.250;10.410;2023-05-10T00:30:48;15.10;78.80
13389;DHT22;6764;53.250;10.410;2023-05-10T00:33:14;15.10;79.30
13389;DHT22;6764;53.250;10.410;2023-05-10T00:35:39;15.10;79.10
13389;DHT22;6764;53.250;10.410;2023-05-10T00:38:05;15.10;79.20
13389;DHT22;6764;53.250;10.410;2023-05-10T00:40:31;15.00;79.60
13389;DHT22;6764;53.250;10.410;2023-05-10T00:42:57;15.00;79.90
13389;DHT22;6764;53.250;10.410;2023-05-10T00:45:24;14.90;80.00
13389;DHT22;6764;53.250;10.410;2023-05-10T00:47:50;15.00;79.90
13389;DHT22;6764;53.250;10.410;2023-05-10T00:50:17;15.00;80.00
13389;DHT22;6764;53.250;10.410;2023-05-10T00:52:43;14.90;80.30
13389;DHT22;6764;53.250;10.410;2023-05-10T00:55:10;14.80;80.80
13389;DHT22;6764;53.250;10.410;2023-05-10T00:57:37;14.90;80.90
13389;DHT22;6764;53.250;10.410;2023-05-10T01:00:03;14.70;81.80
13389;DHT22;6764;53.250;10.410;2023-05-10T01:02:28;14.70;81.40
13389;DHT22;6764;53.250;10.410;2023-05-10T01:04:54;14.70;81.40
13389;DHT22;6764;53.250;10.410;2023-05-10T01:07:20;14.80;81.70
13389;DHT22;6764;53.250;10.410;2023-05-10T01:09:46;14.70;81.80
13389;DHT22;6764;53.250;10.410;2023-05-10T01:12:14;14.60;82.20
13389;DHT22;6764;53.250;10.410;2023-05-10T01:14:40;14.60;82.30
13389;DHT22;6764;53.250;10.410;2023-05-10T01:17:07;14.60;82.50
13389;DHT22;6764;53.250;10.410;2023-05-10T01:19:34;14.60;82.80
13389;DHT22;6764;53.250;10.410;2023-05-10T01:22:33;14.60;82.90
13389;DHT22;6764;53.250;10.410;2023-05-10T01:33:38;14.40;83.90
13389;DHT22;6764;53.250;10.410;2023-05-10T01:36:23;14.50;83.90
13389;DHT22;6764;53.250;10.410;2023-05-10T01:39:15;14.40;84.30
13389;DHT22;6764;53.250;10.410;2023-05-10T01:42:25;14.40;84.60
13389;DHT22;6764;53.250;10.410;2023-05-10T01:47:31;14.40;84.80
13389;DHT22;6764;53.250;10.410;2023-05-10T01:50:02;14.30;85.00
13389;DHT22;6764;53.250;10.410;2023-05-10T01:52:36;14.40;85.20
13389;DHT22;6764;53.250;10.410;2023-05-10T01:55:06;14.20;85.50
13389;DHT22;6764;53.250;10.410;2023-05-10T01:57:35;14.20;86.10
13389;DHT22;6764;53.250;10.410;2023-05-10T02:00:02;14.10;86.40
13389;DHT22;6764;53.250;10.410;2023-05-10T02:02:37;14.20;86.50
13389;DHT22;6764;53.250;10.410;2023-05-10T02:05:06;14.10;86.70
13389;DHT22;6764;53.250;10.410;2023-05-10T02:07:35;14.10;87.20
13389;DHT22;6764;53.250;10.410;2023-05-10T02:10:02;14.10;87.30
13389;DHT22;6764;53.250;10.410;2023-05-10T02:12:30;14.10;87.40
13389;DHT22;6764;53.250;10.410;2023-05-10T02:14:59;14.10;87.60
13389;DHT22;6764;53.250;10.410;2023-05-10T02:17:26;14.00;88.70
13389;DHT22;6764;53.250;10.410;2023-05-10T02:19:53;13.90;88.30
13389;DHT22;6764;53.250;10.410;2023-05-10T02:22:20;14.00;88.50
13389;DHT22;6764;53.250;10.410;2023-05-10T02:24:47;13.90;88.80
13389;DHT22;6764;53.250;10.410;2023-05-10T02:27:14;13.80;89.10
13389;DHT22;6764;53.250;10.410;2023-05-10T02:29:41;13.90;89.50
13389;DHT22;6764;53.250;10.410;2023-05-10T02:32:10;13.80;89.80
13389;DHT22;6764;53.250;10.410;2023-05-10T02:34:36;13.70;90.00
13389;DHT22;6764;53.250;10.410;2023-05-10T02:37:02;13.80;90.00
13389;DHT22;6764;53.250;10.410;2023-05-10T02:39:29;13.80;90.00
13389;DHT22;6764;53.250;10.410;2023-05-10T02:41:56;13.80;90.00
13389;DHT22;6764;53.250;10.410;2023-05-10T02:44:23;13.80;90.10
13389;DHT22;6764;53.250;10.410;2023-05-10T02:46:52;13.80;90.20
13389;DHT22;6764;53.250;10.410;2023-05-10T02:49:18;13.70;90.40
13389;DHT22;6764;53.250;10.410;2023-05-10T02:51:50;13.70;90.70
13389;DHT22;6764;53.250;10.410;2023-05-10T02:54:20;13.70;90.70
13389;DHT22;6764;53.250;10.410;2023-05-10T02:56:56;13.60;90.90
13389;DHT22;6764;53.250;10.410;2023-05-10T02:59:22;13.60;91.00
13389;DHT22;6764;53.250;10.410;2023-05-10T03:01:48;13.60;91.10
13389;DHT22;6764;53.250;10.410;2023-05-10T03:04:13;13.60;91.10
13389;DHT22;6764;53.250;10.410;2023-05-10T03:06:40;13.60;91.30
13389;DHT22;6764;53.250;10.410;2023-05-10T03:09:06;13.50;91.50
13389;DHT22;6764;53.250;10.410;2023-05-10T03:17:31;13.40;91.90
13389;DHT22;6764;53.250;10.410;2023-05-10T03:20:10;13.40;91.90
13389;DHT22;6764;53.250;10.410;2023-05-10T03:22:40;13.40;92.10
13389;DHT22;6764;53.250;10.410;2023-05-10T03:25:07;13.40;92.20
13389;DHT22;6764;53.250;10.410;2023-05-10T03:27:35;13.50;92.20
13389;DHT22;6764;53.250;10.410;2023-05-10T03:30:02;13.50;92.20
13389;DHT22;6764;53.250;10.410;2023-05-10T03:32:29;13.50;92.40
13389;DHT22;6764;53.250;10.410;2023-05-10T03:34:57;13.40;92.40
13389;DHT22;6764;53.250;10.410;2023-05-10T03:37:22;13.40;92.60
13389;DHT22;6764;53.250;10.410;2023-05-10T03:39:48;13.40;92.70
13389;DHT22;6764;53.250;10.410;2023-05-10T03:42:13;13.30;92.90
13389;DHT22;6764;53.250;10.410;2023-05-10T03:44:39;13.40;92.90
13389;DHT22;6764;53.250;10.410;2023-05-10T03:47:05;13.50;92.90
13389;DHT22;6764;53.250;10.410;2023-05-10T03:49:30;13.40;92.90
13389;DHT22;6764;53.250;10.410;2023-05-10T03:51:56;13.40;93.10
13389;DHT22;6764;53.250;10.410;2023-05-10T03:54:22;13.40;93.20
13389;DHT22;6764;53.250;10.410;2023-05-10T03:56:47;13.40;93.20
13389;DHT22;6764;53.250;10.410;2023-05-10T03:59:13;13.50;93.30
13389;DHT22;6764;53.250;10.410;2023-05-10T04:01:39;13.40;93.40
13389;DHT22;6764;53.250;10.410;2023-05-10T04:04:04;13.30;93.50
13389;DHT22;6764;53.250;10.410;2023-05-10T04:06:30;13.40;93.60
13389;DHT22;6764;53.250;10.410;2023-05-10T04:08:56;13.40;93.60
13389;DHT22;6764;53.250;10.410;2023-05-10T04:11:25;13.50;93.50
13389;DHT22;6764;53.250;10.410;2023-05-10T04:13:50;13.50;93.60
13389;DHT22;6764;53.250;10.410;2023-05-10T04:16:16;13.50;93.70
13389;DHT22;6764;53.250;10.410;2023-05-10T04:18:42;13.50;93.70
13389;DHT22;6764;53.250;10.410;2023-05-10T04:21:14;13.50;93.60
13389;DHT22;6764;53.250;10.410;2023-05-10T04:23:40;13.50;93.70
13389;DHT22;6764;53.250;10.410;2023-05-10T04:26:06;13.50;93.70
13389;DHT22;6764;53.250;10.410;2023-05-10T04:28:31;13.50;94.10
13389;DHT22;6764;53.250;10.410;2023-05-10T04:31:04;13.50;93.70
13389;DHT22;6764;53.250;10.410;2023-05-10T04:33:30;13.60;93.70
13389;DHT22;6764;53.250;10.410;2023-05-10T04:35:56;13.50;93.90
13389;DHT22;6764;53.250;10.410;2023-05-10T04:38:22;13.60;93.90
13389;DHT22;6764;53.250;10.410;2023-05-10T04:40:48;13.50;94.00
13389;DHT22;6764;53.250;10.410;2023-05-10T04:43:13;13.50;94.00
13389;DHT22;6764;53.250;10.410;2023-05-10T04:45:39;13.50;94.10
13389;DHT22;6764;53.250;10.410;2023-05-10T04:48:05;13.50;94.20
13389;DHT22;6764;53.250;10.410;2023-05-10T04:50:30;13.60;94.50
13389;DHT22;6764;53.250;10.410;2023-05-10T04:52:57;13.60;94.20
13389;DHT22;6764;53.250;10.410;2023-05-10T04:55:22;13.60;94.10
13389;DHT22;6764;53.250;10.410;2023-05-10T04:57:50;13.70;93.90
13389;DHT22;6764;53.250;10.410;2023-05-10T05:00:16;13.70;94.00
13389;DHT22;6764;53.250;10.410;2023-05-10T05:02:43;13.80;94.10
13389;DHT22;6764;53.250;10.410;2023-05-10T05:05:09;13.80;94.10
13389;DHT22;6764;53.250;10.410;2023-05-10T05:07:35;13.90;94.00
13389;DHT22;6764;53.250;10.410;2023-05-10T05:10:01;14.00;94.00
13389;DHT22;6764;53.250;10.410;2023-05-10T05:12:26;14.10;93.70
13389;DHT22;6764;53.250;10.410;2023-05-10T05:14:52;14.20;93.50
13389;DHT22;6764;53.250;10.410;2023-05-10T05:17:17;14.20;93.50
13389;DHT22;6764;53.250;10.410;2023-05-10T05:19:43;14.30;93.60
13389;DHT22;6764;53.250;10.410;2023-05-10T05:22:08;14.40;93.30
13389;DHT22;6764;53.250;10.410;2023-05-10T05:24:37;14.40;93.20
13389;DHT22;6764;53.250;10.410;2023-05-10T05:27:06;14.50;93.20
13389;DHT22;6764;53.250;10.410;2023-05-10T05:29:32;14.60;93.10
13389;DHT22;6764;53.250;10.410;2023-05-10T05:31:58;14.60;93.00
13389;DHT22;6764;53.250;10.410;2023-05-10T05:34:23;14.70;92.80
13389;DHT22;6764;53.250;10.410;2023-05-10T05:36:50;14.90;92.80
13389;DHT22;6764;53.250;10.410;2023-05-10T05:39:15;15.00;92.50
13389;DHT22;6764;53.250;10.410;2023-05-10T05:41:41;15.00;92.60
13389;DHT22;6764;53.250;10.410;2023-05-10T05:44:07;15.10;92.70
13389;DHT22;6764;53.250;10.410;2023-05-10T05:46:33;15.20;92.40
13389;DHT22;6764;53.250;10.410;2023-05-10T05:48:58;15.10;92.40
13389;DHT22;6764;53.250;10.410;2023-05-10T05:51:24;15.00;92.20
13389;DHT22;6764;53.250;10.410;2023-05-10T05:53:50;15.20;92.50
13389;DHT22;6764;53.250;10.410;2023-05-10T05:56:16;15.30;92.10
13389;DHT22;6764;53.250;10.410;2023-05-10T05:58:42;15.40;91.80
13389;DHT22;6764;53.250;10.410;2023-05-10T06:01:08;15.50;91.50
13389;DHT22;6764;53.250;10.410;2023-05-10T06:03:34;15.60;91.40
13389;DHT22;6764;53.250;10.410;2023-05-10T06:06:00;15.80;91.20
13389;DHT22;6764;53.250;10.410;2023-05-10T06:08:25;16.00;90.90
13389;DHT22;6764;53.250;10.410;2023-05-10T06:10:51;15.80;91.10
13389;DHT22;6764;53.250;10.410;2023-05-10T06:13:17;16.00;91.00
13389;DHT22;6764;53.250;10.410;2023-05-10T06:15:42;16.40;90.90
13389;DHT22;6764;53.250;10.410;2023-05-10T06:18:08;16.70;90.30
13389;DHT22;6764;53.250;10.410;2023-05-10T06:20:33;16.90;89.80
13389;DHT22;6764;53.250;10.410;2023-05-10T06:22:59;17.20;89.00
13389;DHT22;6764;53.250;10.410;2023-05-10T06:25:25;17.90;87.90
13389;DHT22;6764;53.250;10.410;2023-05-10T06:27:50;19.10;83.90
13389;DHT22;6764;53.250;10.410;2023-05-10T06:30:20;20.60;79.90
13389;DHT22;6764;53.250;10.410;2023-05-10T06:32:48;21.80;75.30
13389;DHT22;6764;53.250;10.410;2023-05-10T06:35:13;21.90;72.60
13389;DHT22;6764;53.250;10.410;2023-05-10T06:37:39;21.50;73.00
13389;DHT22;6764;53.250;10.410;2023-05-10T06:40:06;21.10;74.00
13389;DHT22;6764;53.250;10.410;2023-05-10T06:42:31;20.80;75.10
13389;DHT22;6764;53.250;10.410;2023-05-10T06:44:57;20.30;75.80
13389;DHT22;6764;53.250;10.410;2023-05-10T06:47:23;19.90;77.10
13389;DHT22;6764;53.250;10.410;2023-05-10T06:49:48;19.50;78.00
13389;DHT22;6764;53.250;10.410;2023-05-10T06:52:14;19.30;78.60
13389;DHT22;6764;53.250;10.410;2023-05-10T06:54:42;19.10;79.20
13389;DHT22;6764;53.250;10.410;2023-05-10T06:57:07;18.80;80.40
13389;DHT22;6764;53.250;10.410;2023-05-10T06:59:33;18.90;80.80
13389;DHT22;6764;53.250;10.410;2023-05-10T07:01:58;18.70;80.80
13389;DHT22;6764;53.250;10.410;2023-05-10T07:04:24;18.80;80.20
13389;DHT22;6764;53.250;10.410;2023-05-10T07:06:49;19.20;79.80
13389;DHT22;6764;53.250;10.410;2023-05-10T07:09:15;19.40;78.80
13389;DHT22;6764;53.250;10.410;2023-05-10T07:11:41;19.50;78.20
13389;DHT22;6764;53.250;10.410;2023-05-10T07:14:07;19.60;78.40
13389;DHT22;6764;53.250;10.410;2023-05-10T07:16:32;19.50;78.50
13389;DHT22;6764;53.250;10.410;2023-05-10T07:18:58;19.40;78.90
13389;DHT22;6764;53.250;10.410;2023-05-10T07:21:23;19.60;78.90
13389;DHT22;6764;53.250;10.410;2023-05-10T07:23:49;19.70;78.70
13389;DHT22;6764;53.250;10.410;2023-05-10T07:26:15;20.00;78.60
13389;DHT22;6764;53.250;10.410;2023-05-10T07:28:41;20.40;77.90
13389;DHT22;6764;53.250;10.410;2023-05-10T07:31:07;20.60;77.00
13389;DHT22;6764;53.250;10.410;2023-05-10T07:33:35;20.50;76.20
13389;DHT22;6764;53.250;10.410;2023-05-10T07:36:01;19.90;77.50
13389;DHT22;6764;53.250;10.410;2023-05-10T07:38:26;19.90;78.40
13389;DHT22;6764;53.250;10.410;2023-05-10T07:40:52;19.80;78.50
13389;DHT22;6764;53.250;10.410;2023-05-10T07:43:17;19.80;79.20
13389;DHT22;6764;53.250;10.410;2023-05-10T07:45:43;19.60;79.30
13389;DHT22;6764;53.250;10.410;2023-05-10T07:48:08;19.40;79.80
13389;DHT22;6764;53.250;10.410;2023-05-10T07:50:34;19.30;80.00
13389;DHT22;6764;53.250;10.410;2023-05-10T07:53:02;19.20;80.60
13389;DHT22;6764;53.250;10.410;2023-05-10T07:55:28;19.10;81.30
13389;DHT22;6764;53.250;10.410;2023-05-10T07:57:54;19.20;81.30
13389;DHT22;6764;53.250;10.410;2023-05-10T08:00:20;19.20;81.30
13389;DHT22;6764;53.250;10.410;2023-05-10T08:02:46;19.00;82.00
13389;DHT22;6764;53.250;10.410;2023-05-10T08:05:12;18.90;82.20
13389;DHT22;6764;53.250;10.410;2023-05-10T08:07:38;18.80;83.10
13389;DHT22;6764;53.250;10.410;2023-05-10T08:10:04;19.00;83.20
13389;DHT22;6764;53.250;10.410;2023-05-10T08:12:30;19.30;82.80
13389;DHT22;6764;53.250;10.410;2023-05-10T08:14:56;19.50;82.30
13389;DHT22;6764;53.250;10.410;2023-05-10T08:17:22;19.80;81.40
13389;DHT22;6764;53.250;10.410;2023-05-10T08:19:48;19.80;81.00
13389;DHT22;6764;53.250;10.410;2023-05-10T08:22:14;20.20;80.50
13389;DHT22;6764;53.250;10.410;2023-05-10T08:24:39;20.50;79.50
13389;DHT22;6764;53.250;10.410;2023-05-10T08:27:07;20.40;79.20
13389;DHT22;6764;53.250;10.410;2023-05-10T08:29:34;20.00;79.90
13389;DHT22;6764;53.250;10.410;2023-05-10T08:31:59;20.00;80.60
13389;DHT22;6764;53.250;10.410;2023-05-10T08:34:26;20.20;80.50
13389;DHT22;6764;53.250;10.410;2023-05-10T08:36:52;20.20;80.10
13389;DHT22;6764;53.250;10.410;2023-05-10T08:39:18;20.30;80.50
13389;DHT22;6764;53.250;10.410;2023-05-10T08:41:45;19.80;81.60
13389;DHT22;6764;53.250;10.410;2023-05-10T08:44:12;19.60;82.70
13389;DHT22;6764;53.250;10.410;2023-05-10T08:46:41;19.40;83.10
13389;DHT22;6764;53.250;10.410;2023-05-10T08:49:13;19.30;84.20
13389;DHT22;6764;53.250;10.410;2023-05-10T08:51:46;19.00;84.90
13389;DHT22;6764;53.250;10.410;2023-05-10T08:54:12;18.80;86.10
13389;DHT22;6764;53.250;10.410;2023-05-10T08:56:38;18.70;86.50
13389;DHT22;6764;53.250;10.410;2023-05-10T08:59:04;18.50;87.00
13389;DHT22;6764;53.250;10.410;2023-05-10T09:01:31;18.40;87.90
13389;DHT22;6764;53.250;10.410;2023-05-10T09:03:58;18.30;88.30
13389;DHT22;6764;53.250;10.410;2023-05-10T09:06:24;18.40;89.10
13389;DHT22;6764;53.250;10.410;2023-05-10T09:08:50;18.50;88.50
13389;DHT22;6764;53.250;10.410;2023-05-10T09:11:16;18.50;88.70
13389;DHT22;6764;53.250;10.410;2023-05-10T09:13:42;18.60;88.80
13389;DHT22;6764;53.250;10.410;2023-05-10T09:16:11;18.50;88.90
13389;DHT22;6764;53.250;10.410;2023-05-10T09:18:37;18.40;89.20
13389;DHT22;6764;53.250;10.410;2023-05-10T09:21:02;18.40;89.60
13389;DHT22;6764;53.250;10.410;2023-05-10T09:23:28;18.40;90.00
13389;DHT22;6764;53.250;10.410;2023-05-10T09:26:04;18.40;90.30
13389;DHT22;6764;53.250;10.410;2023-05-10T09:28:34;18.20;90.60
13389;DHT22;6764;53.250;10.410;2023-05-10T09:31:15;18.40;90.70
13389;DHT22;6764;53.250;10.410;2023-05-10T09:33:47;18.70;90.60
13389;DHT22;6764;53.250;10.410;2023-05-10T09:36:14;18.90;90.40
13389;DHT22;6764;53.250;10.410;2023-05-10T09:38:47;19.00;90.30
13389;DHT22;6764;53.250;10.410;2023-05-10T09:41:23;18.80;91.00
13389;DHT22;6764;53.250;10.410;2023-05-10T09:43:49;18.70;91.50
13389;DHT22;6764;53.250;10.410;2023-05-10T09:46:16;18.40;92.20
13389;DHT22;6764;53.250;10.410;2023-05-10T09:48:46;18.30;92.90
13389;DHT22;6764;53.250;10.410;2023-05-10T09:51:23;18.30;93.70
13389;DHT22;6764;53.250;10.410;2023-05-10T09:54:09;18.40;94.40
13389;DHT22;6764;53.250;10.410;2023-05-10T09:56:36;18.30;95.50
13389;DHT22;6764;53.250;10.410;2023-05-10T09:59:04;18.10;96.80
13389;DHT22;6764;53.250;10.410;2023-05-10T10:01:30;18.30;98.00
13389;DHT22;6764;53.250;10.410;2023-05-10T10:03:56;18.40;97.90
13389;DHT22;6764;53.250;10.410;2023-05-10T10:06:25;18.60;99.10
13389;DHT22;6764;53.250;10.410;2023-05-10T10:08:52;18.70;98.30
13389;DHT22;6764;53.250;10.410;2023-05-10T10:11:19;18.50;99.70
13389;DHT22;6764;53.250;10.410;2023-05-10T10:13:44;18.60;99.70
13389;DHT22;6764;53.250;10.410;2023-05-10T10:16:10;18.40;99.50
13389;DHT22;6764;53.250;10.410;2023-05-10T10:18:36;18.40;99.90
13389;DHT22;6764;53.250;10.410;2023-05-10T10:21:08;18.30;99.90
13389;DHT22;6764;53.250;10.410;2023-05-10T10:23:37;18.10;99.90
13389;DHT22;6764;53.250;10.410;2023-05-10T10:26:04;17.90;99.90
13389;DHT22;6764;53.250;10.410;2023-05-10T10:34:38;17.10;99.90
13389;DHT22;6764;53.250;10.410;2023-05-10T10:37:05;17.10;99.90
13389;DHT22;6764;53.250;10.410;2023-05-10T10:39:32;17.00;99.90
13389;DHT22;6764;53.250;10.410;2023-05-10T10:41:58;17.00;99.90
13389;DHT22;6764;53.250;10.410;2023-05-10T10:54:51;16.60;99.90
13389;DHT22;6764;53.250;10.410;2023-05-10T10:57:19;16.50;99.90
13389;DHT22;6764;53.250;10.410;2023-05-10T10:59:47;16.60;99.90
13389;DHT22;6764;53.250;10.410;2023-05-10T11:02:45;16.60;99.90
13389;DHT22;6764;53.250;10.410;2023-05-10T11:05:24;16.50;99.90
13389;DHT22;6764;53.250;10.410;2023-05-10T11:07:58;16.40;99.90
13389;DHT22;6764;53.250;10.410;2023-05-10T11:10:25;16.30;99.90
13389;DHT22;6764;53.250;10.410;2023-05-10T11:13:01;16.20;99.90
13389;DHT22;6764;53.250;10.410;2023-05-10T11:15:39;16.30;99.90
13389;DHT22;6764;53.250;10.410;2023-05-10T11:20:51;16.20;99.90
13389;DHT22;6764;53.250;10.410;2023-05-10T11:23:17;16.30;99.90
13389;DHT22;6764;53.250;10.410;2023-05-10T11:25:47;16.40;99.90
13389;DHT22;6764;53.250;10.410;2023-05-10T11:28:13;16.60;99.90
13389;DHT22;6764;53.250;10.410;2023-05-10T11:30:40;16.70;99.90
13389;DHT22;6764;53.250;10.410;2023-05-10T11:33:07;16.60;99.90
13389;DHT22;6764;53.250;10.410;2023-05-10T11:35:39;16.70;99.90
13389;DHT22;6764;53.250;10.410;2023-05-10T11:38:06;16.90;99.90
13389;DHT22;6764;53.250;10.410;2023-05-10T11:40:32;16.90;99.90
13389;DHT22;6764;53.250;10.410;2023-05-10T11:42:58;16.90;99.90
13389;DHT22;6764;53.250;10.410;2023-05-10T11:45:25;17.00;99.90
13389;DHT22;6764;53.250;10.410;2023-05-10T11:47:51;16.90;99.90
13389;DHT22;6764;53.250;10.410;2023-05-10T11:50:17;17.10;99.90
13389;DHT22;6764;53.250;10.410;2023-05-10T11:52:43;17.30;99.90
13389;DHT22;6764;53.250;10.410;2023-05-10T11:55:09;17.20;99.90
13389;DHT22;6764;53.250;10.410;2023-05-10T11:57:35;17.10;99.90
13389;DHT22;6764;53.250;10.410;2023-05-10T12:00:01;17.10;99.90
13389;DHT22;6764;53.250;10.410;2023-05-10T12:02:29;17.20;99.90
13389;DHT22;6764;53.250;10.410;2023-05-10T12:04:55;17.30;99.90
13389;DHT22;6764;53.250;10.410;2023-05-10T12:07:21;17.30;99.90
13389;DHT22;6764;53.250;10.410;2023-05-10T12:10:06;17.40;99.90
13389;DHT22;6764;53.250;10.410;2023-05-10T12:12:46;17.60;99.90
13389;DHT22;6764;53.250;10.410;2023-05-10T12:15:22;17.80;99.90
13389;DHT22;6764;53.250;10.410;2023-05-10T12:17:49;18.00;99.90
13389;DHT22;6764;53.250;10.410;2023-05-10T12:20:17;18.20;99.90
13389;DHT22;6764;53.250;10.410;2023-05-10T12:22:51;18.20;99.90
13389;DHT22;6764;53.250;10.410;2023-05-10T12:25:18;18.00;99.90
13389;DHT22;6764;53.250;10.410;2023-05-10T12:27:54;18.10;99.90
13389;DHT22;6764;53.250;10.410;2023-05-10T12:30:28;18.20;99.90
13389;DHT22;6764;53.250;10.410;2023-05-10T12:33:01;18.00;99.90
13389;DHT22;6764;53.250;10.410;2023-05-10T12:35:30;17.80;99.90
13389;DHT22;6764;53.250;10.410;2023-05-10T12:37:56;17.80;99.90
13389;DHT22;6764;53.250;10.410;2023-05-10T12:40:22;17.90;99.90
13389;DHT22;6764;53.250;10.410;2023-05-10T12:42:47;17.90;99.90
13389;DHT22;6764;53.250;10.410;2023-05-10T12:45:14;17.70;99.90
13389;DHT22;6764;53.250;10.410;2023-05-10T12:47:39;17.80;99.90
13389;DHT22;6764;53.250;10.410;2023-05-10T12:50:06;17.90;99.90
13389;DHT22;6764;53.250;10.410;2023-05-10T12:52:32;18.00;99.90
13389;DHT22;6764;53.250;10.410;2023-05-10T12:54:58;18.00;99.90
13389;DHT22;6764;53.250;10.410;2023-05-10T12:57:24;18.10;99.90
13389;DHT22;6764;53.250;10.410;2023-05-10T12:59:50;18.00;99.90
13389;DHT22;6764;53.250;10.410;2023-05-10T13:02:16;17.80;99.90
13389;DHT22;6764;53.250;10.410;2023-05-10T13:04:46;18.00;99.90
13389;DHT22;6764;53.250;10.410;2023-05-10T13:07:12;18.20;99.90
13389;DHT22;6764;53.250;10.410;2023-05-10T13:09:38;18.10;99.90
13389;DHT22;6764;53.250;10.410;2023-05-10T13:12:03;18.10;99.90
13389;DHT22;6764;53.250;10.410;2023-05-10T13:14:31;18.20;99.90
13389;DHT22;6764;53.250;10.410;2023-05-10T13:16:57;18.20;99.90
13389;DHT22;6764;53.250;10.410;2023-05-10T13:19:23;18.20;99.90
13389;DHT22;6764;53.250;10.410;2023-05-10T13:21:48;18.20;99.90
13389;DHT22;6764;53.250;10.410;2023-05-10T13:24:14;18.30;99.90
13389;DHT22;6764;53.250;10.410;2023-05-10T13:26:40;18.50;99.90
13389;DHT22;6764;53.250;10.410;2023-05-10T13:29:06;18.70;99.90
13389;DHT22;6764;53.250;10.410;2023-05-10T13:31:32;18.80;99.90
13389;DHT22;6764;53.250;10.410;2023-05-10T13:33:58;19.00;99.90
13389;DHT22;6764;53.250;10.410;2023-05-10T13:36:23;19.00;99.90
13389;DHT22;6764;53.250;10.410;2023-05-10T13:38:49;19.10;99.90
13389;DHT22;6764;53.250;10.410;2023-05-10T13:41:15;19.00;99.90
13389;DHT22;6764;53.250;10.410;2023-05-10T13:43:40;19.00;99.90
13389;DHT22;6764;53.250;10.410;2023-05-10T13:46:06;18.90;99.90
13389;DHT22;6764;53.250;10.410;2023-05-10T13:48:31;19.00;99.90
13389;DHT22;6764;53.250;10.410;2023-05-10T13:50:57;18.90;99.90
13389;DHT22;6764;53.250;10.410;2023-05-10T13:53:22;18.80;99.90
13389;DHT22;6764;53.250;10.410;2023-05-10T13:55:48;19.00;99.90
13389;DHT22;6764;53.250;10.410;2023-05-10T13:58:14;19.10;99.90
13389;DHT22;6764;53.250;10.410;2023-05-10T14:00:39;19.00;99.90
13389;DHT22;6764;53.250;10.410;2023-05-10T14:03:08;19.00;99.90
13389;DHT22;6764;53.250;10.410;2023-05-10T14:05:36;19.00;99.90
13389;DHT22;6764;53.250;10.410;2023-05-10T14:08:01;19.20;99.90
13389;DHT22;6764;53.250;10.410;2023-05-10T14:10:29;19.00;99.90
13389;DHT22;6764;53.250;10.410;2023-05-10T14:12:55;19.00;99.90
13389;DHT22;6764;53.250;10.410;2023-05-10T14:15:21;19.00;99.90
13389;DHT22;6764;53.250;10.410;2023-05-10T14:17:46;19.20;99.90
13389;DHT22;6764;53.250;10.410;2023-05-10T14:20:13;19.50;99.90
13389;DHT22;6764;53.250;10.410;2023-05-10T14:22:39;19.50;99.90
13389;DHT22;6764;53.250;10.410;2023-05-10T14:25:05;19.60;99.90
13389;DHT22;6764;53.250;10.410;2023-05-10T14:27:32;19.50;99.90
13389;DHT22;6764;53.250;10.410;2023-05-10T14:29:58;19.30;99.90
13389;DHT22;6764;53.250;10.410;2023-05-10T14:32:24;19.20;99.90
13389;DHT22;6764;53.250;10.410;2023-05-10T14:34:50;19.20;99.90
13389;DHT22;6764;53.250;10.410;2023-05-10T14:37:16;19.30;99.90
13389;DHT22;6764;53.250;10.410;2023-05-10T14:39:41;19.50;99.90
13389;DHT22;6764;53.250;10.410;2023-05-10T14:42:08;19.50;99.90
13389;DHT22;6764;53.250;10.410;2023-05-10T14:44:34;19.60;99.90
13389;DHT22;6764;53.250;10.410;2023-05-10T14:46:59;19.60;99.90
13389;DHT22;6764;53.250;10.410;2023-05-10T14:49:25;19.60;99.90
13389;DHT22;6764;53.250;10.410;2023-05-10T14:51:51;19.60;99.90
13389;DHT22;6764;53.250;10.410;2023-05-10T14:54:17;19.60;99.90
13389;DHT22;6764;53.250;10.410;2023-05-10T14:56:43;19.60;99.90
13389;DHT22;6764;53.250;10.410;2023-05-10T14:59:08;19.60;99.90
13389;DHT22;6764;53.250;10.410;2023-05-10T15:01:34;19.70;99.90
13389;DHT22;6764;53.250;10.410;2023-05-10T15:04:03;19.80;99.90
13389;DHT22;6764;53.250;10.410;2023-05-10T15:06:33;19.70;99.90
13389;DHT22;6764;53.250;10.410;2023-05-10T15:09:00;19.60;99.90
13389;DHT22;6764;53.250;10.410;2023-05-10T15:11:26;19.40;99.90
13389;DHT22;6764;53.250;10.410;2023-05-10T15:13:52;19.20;99.90
13389;DHT22;6764;53.250;10.410;2023-05-10T15:16:17;19.20;99.90
13389;DHT22;6764;53.250;10.410;2023-05-10T15:18:43;19.40;99.90
13389;DHT22;6764;53.250;10.410;2023-05-10T15:21:09;19.40;99.90
13389;DHT22;6764;53.250;10.410;2023-05-10T15:23:34;19.40;99.90
13389;DHT22;6764;53.250;10.410;2023-05-10T15:26:01;19.60;99.90
13389;DHT22;6764;53.250;10.410;2023-05-10T15:28:28;19.40;99.90
13389;DHT22;6764;53.250;10.410;2023-05-10T15:30:53;19.40;99.90
13389;DHT22;6764;53.250;10.410;2023-05-10T15:33:19;19.30;99.90
13389;DHT22;6764;53.250;10.410;2023-05-10T15:35:45;19.40;99.90
13389;DHT22;6764;53.250;10.410;2023-05-10T15:38:10;19.50;99.90
13389;DHT22;6764;53.250;10.410;2023-05-10T15:40:36;19.40;99.90
13389;DHT22;6764;53.250;10.410;2023-05-10T15:43:02;19.40;99.90
13389;DHT22;6764;53.250;10.410;2023-05-10T15:45:28;19.40;99.90
13389;DHT22;6764;53.250;10.410;2023-05-10T15:47:53;19.60;99.90
13389;DHT22;6764;53.250;10.410;2023-05-10T15:50:19;19.60;99.90
13389;DHT22;6764;53.250;10.410;2023-05-10T15:52:45;19.70;99.90
13389;DHT22;6764;53.250;10.410;2023-05-10T15:55:13;19.60;99.90
13389;DHT22;6764;53.250;10.410;2023-05-10T15:57:40;19.60;99.90
13389;DHT22;6764;53.250;10.410;2023-05-10T16:00:08;19.40;99.90
13389;DHT22;6764;53.250;10.410;2023-05-10T16:02:34;19.40;99.90
13389;DHT22;6764;53.250;10.410;2023-05-10T16:05:00;19.30;99.90
13389;DHT22;6764;53.250;10.410;2023-05-10T16:07:26;19.20;99.90